Time;durP1;ratioP1;P1;durP2;ratioP2;P2;SDS_P1;SDS_P2;PMS_P1;PMS_P2;Temp;Humidity;BMP_temperature;BMP_pressure;BME280_temperature;BME280_humidity;BME280_pressure;Samples;Min_cycle;Max_cycle;Signal;HPM_P1;HPM_P2
2021/12/08 00:01:22;;;;;;;2.92;1.15;;;;;;;5.38;100.00;98256.88;5085472;27;20093;-57
2021/12/08 00:03:49;;;;;;;3.28;1.00;;;;;;;5.36;100.00;98244.88;5084151;28;20038;-57
2021/12/08 00:06:14;;;;;;;3.17;0.93;;;;;;;5.33;100.00;98237.28;5093167;27;20034;-57
2021/12/08 00:08:45;;;;;;;1.95;0.70;;;;;;;5.32;100.00;98241.66;5104651;27;20928;-57
2021/12/08 00:13:55;;;;;;;3.83;1.25;;;;;;;5.26;100.00;98241.19;5081202;28;20138;-57
2021/12/08 00:16:20;;;;;;;2.00;0.88;;;;;;;5.24;100.00;98243.06;5094998;27;20023;-57
2021/12/08 00:18:48;;;;;;;3.15;1.25;;;;;;;5.20;100.00;98246.78;5094543;27;20772;-57
2021/12/08 00:21:15;;;;;;;2.72;1.30;;;;;;;5.16;100.00;98246.16;5096214;27;20039;-57
2021/12/08 00:23:40;;;;;;;2.15;1.00;;;;;;;5.11;100.00;98238.63;5083366;28;20170;-56
2021/12/08 00:26:06;;;;;;;2.42;1.10;;;;;;;4.97;100.00;98217.81;5081482;28;21007;-56
2021/12/08 00:28:32;;;;;;;2.78;1.27;;;;;;;5.07;100.00;98241.50;5063177;28;20920;-57
2021/12/08 00:30:59;;;;;;;3.08;1.00;;;;;;;5.05;100.00;98231.22;5075152;28;20036;-57
2021/12/08 00:33:27;;;;;;;2.45;0.85;;;;;;;5.05;100.00;98239.00;5073292;28;20032;-56
2021/12/08 00:35:54;;;;;;;3.88;1.15;;;;;;;5.05;100.00;98239.00;5097996;28;20031;-56
2021/12/08 00:38:20;;;;;;;2.17;0.90;;;;;;;5.05;100.00;98251.19;5092819;28;20028;-57
2021/12/08 00:40:47;;;;;;;3.17;1.40;;;;;;;5.05;100.00;98253.78;5092800;28;20035;-57
2021/12/08 00:43:13;;;;;;;2.47;0.90;;;;;;;5.07;100.00;98246.72;5080151;28;20054;-57
2021/12/08 00:45:38;;;;;;;3.03;1.20;;;;;;;5.09;100.00;98261.31;5092972;28;20030;-57
2021/12/08 00:48:05;;;;;;;2.40;1.08;;;;;;;5.11;100.00;98269.84;5102564;28;20134;-57
2021/12/08 00:50:33;;;;;;;3.67;1.40;;;;;;;5.14;100.00;98255.81;5102118;28;20031;-57
2021/12/08 00:52:58;;;;;;;2.25;0.98;;;;;;;5.18;100.00;98259.06;5086784;28;20039;-57
2021/12/08 00:55:25;;;;;;;2.83;1.17;;;;;;;5.24;100.00;98271.72;5091241;28;20074;-58
2021/12/08 00:57:51;;;;;;;1.95;0.80;;;;;;;5.26;100.00;98275.03;5079657;28;20036;-57
2021/12/08 01:00:23;;;;;;;2.47;1.10;;;;;;;5.27;100.00;98280.16;5088273;28;20039;-57
2021/12/08 01:02:48;;;;;;;1.70;0.80;;;;;;;5.14;100.00;98264.47;5079152;28;20139;-57
2021/12/08 01:05:19;;;;;;;2.33;1.15;;;;;;;5.21;100.00;98274.47;5094480;28;20034;-57
2021/12/08 01:07:45;;;;;;;1.42;0.70;;;;;;;5.13;100.00;98257.59;5101552;28;20097;-58
2021/12/08 01:10:15;;;;;;;3.00;0.88;;;;;;;5.07;100.00;98268.38;5088517;28;20024;-57
2021/12/08 01:12:41;;;;;;;3.38;0.90;;;;;;;5.05;100.00;98275.44;5091967;27;20031;-57
2021/12/08 01:15:07;;;;;;;2.58;0.98;;;;;;;5.05;100.00;98275.44;5106055;27;20045;-57
2021/12/08 01:17:33;;;;;;;4.93;1.02;;;;;;;5.04;100.00;98280.72;5099929;27;20027;-58
2021/12/08 01:19:59;;;;;;;5.00;1.33;;;;;;;5.04;100.00;98273.78;5086010;27;20043;-57
2021/12/08 01:22:25;;;;;;;4.63;1.02;;;;;;;4.84;100.00;98253.34;5098866;27;20070;-57
2021/12/08 01:24:50;;;;;;;2.15;1.08;;;;;;;4.50;100.00;98212.97;5085120;27;20039;-57
2021/12/08 01:27:15;;;;;;;2.25;0.80;;;;;;;4.96;100.00;98286.44;5085058;28;20028;-57
2021/12/08 01:29:41;;;;;;;2.25;0.88;;;;;;;4.98;100.00;98292.38;5078003;28;20055;-57
2021/12/08 01:32:07;;;;;;;3.88;1.38;;;;;;;4.71;100.00;98249.00;5089169;27;20114;-57
2021/12/08 01:34:33;;;;;;;4.70;1.00;;;;;;;5.01;100.00;98305.19;5086178;28;20015;-57
2021/12/08 01:36:58;;;;;;;3.40;1.00;;;;;;;5.02;100.00;98316.44;5084415;28;20032;-58
2021/12/08 01:39:24;;;;;;;2.40;0.90;;;;;;;5.07;100.00;98319.59;5089731;27;20586;-58
2021/12/08 01:41:52;;;;;;;3.13;0.80;;;;;;;5.16;100.00;98311.22;5094127;27;20032;-57
2021/12/08 01:47:02;;;;;;;4.20;1.42;;;;;;;5.18;100.00;98316.31;5102832;27;20155;-57
2021/12/08 01:49:27;;;;;;;2.95;1.13;;;;;;;5.25;100.00;98318.47;5070973;27;20031;-58
2021/12/08 01:51:52;;;;;;;2.92;1.00;;;;;;;5.26;100.00;98319.28;5091832;27;20955;-57
2021/12/08 01:54:18;;;;;;;2.50;1.00;;;;;;;5.31;100.00;98322.44;5101643;27;20062;-57
2021/12/08 01:56:43;;;;;;;5.30;1.60;;;;;;;5.37;100.00;98332.50;5085417;27;20023;-57
2021/12/08 01:59:09;;;;;;;2.40;1.00;;;;;;;5.41;100.00;98333.94;5081404;27;20031;-57
2021/12/08 02:01:38;;;;;;;5.88;1.92;;;;;;;5.50;100.00;98338.59;5097213;27;20058;-57
2021/12/08 02:04:04;;;;;;;8.15;1.30;;;;;;;5.55;100.00;98333.94;5098088;27;20448;-58
2021/12/08 02:06:48;;;;;;;3.78;1.35;;;;;;;5.63;100.00;98334.28;5080268;28;20165;-57
2021/12/08 02:09:15;;;;;;;4.00;1.42;;;;;;;5.66;100.00;98339.31;5072407;28;20039;-57
2021/12/08 02:11:47;;;;;;;5.95;1.40;;;;;;;5.71;100.00;98342.47;5095012;27;20059;-57
2021/12/08 02:14:14;;;;;;;10.30;1.90;;;;;;;5.72;100.00;98349.34;5076515;27;20024;-57
2021/12/08 02:16:40;;;;;;;3.25;1.27;;;;;;;5.74;100.00;98347.47;5069682;27;20042;-57
2021/12/08 02:19:06;;;;;;;6.43;1.95;;;;;;;5.77;100.00;98349.06;5091762;27;20039;-58
2021/12/08 02:21:34;;;;;;;6.40;2.20;;;;;;;5.79;100.00;98360.19;5068336;27;20449;-57
2021/12/08 02:24:03;;;;;;;6.25;1.55;;;;;;;5.77;100.00;98352.50;5076944;28;20023;-57
2021/12/08 02:26:29;;;;;;;3.67;1.63;;;;;;;5.77;100.00;98352.50;5079359;27;20849;-58
2021/12/08 02:28:55;;;;;;;4.63;1.35;;;;;;;5.74;100.00;98346.66;5094116;27;20118;-57
2021/12/08 02:31:31;;;;;;;13.10;2.67;;;;;;;5.33;100.00;98295.41;5096241;27;20083;-58
2021/12/08 02:47:53;;;;;;;5.10;2.00;;;;;;;5.91;100.00;98375.09;5069099;28;20078;-58
2021/12/08 02:50:21;;;;;;;7.65;2.28;;;;;;;5.79;100.00;98362.81;5096732;27;20456;-57
2021/12/08 02:52:47;;;;;;;4.82;2.05;;;;;;;5.64;100.00;98352.41;5076941;28;20109;-56
2021/12/08 02:55:12;;;;;;;6.80;2.03;;;;;;;5.79;100.00;98381.88;5092913;27;20875;-57
2021/12/08 02:57:38;;;;;;;5.93;1.90;;;;;;;5.77;100.00;98377.72;5082464;27;20793;-56
2021/12/08 03:00:07;;;;;;;6.38;2.58;;;;;;;5.74;100.00;98381.34;5091776;27;20032;-56
2021/12/08 03:02:32;;;;;;;5.50;2.08;;;;;;;5.75;100.00;98388.22;5096341;27;20027;-57
2021/12/08 03:04:57;;;;;;;6.55;2.13;;;;;;;5.81;100.00;98390.47;5083458;27;20035;-57
2021/12/08 03:07:23;;;;;;;8.23;2.40;;;;;;;5.89;100.00;98388.22;5080945;28;20023;-56
2021/12/08 03:09:48;;;;;;;6.20;2.05;;;;;;;5.90;100.00;98389.91;5085824;27;20533;-56
2021/12/08 03:12:14;;;;;;;6.55;2.10;;;;;;;5.86;100.00;98392.78;5097909;27;20134;-56
2021/12/08 03:14:40;;;;;;;7.53;2.50;;;;;;;5.82;100.00;98399.94;5083710;27;20557;-56
2021/12/08 03:17:08;;;;;;;6.93;1.90;;;;;;;5.73;100.00;98386.66;5057020;28;20904;-57
2021/12/08 03:19:33;;;;;;;6.93;2.28;;;;;;;5.61;100.00;98380.44;5070449;28;20377;-56
2021/12/08 03:21:59;;;;;;;11.95;2.75;;;;;;;5.38;100.00;98339.34;5066678;27;20031;-56
2021/12/08 03:24:32;;;;;;;10.50;2.88;;;;;;;5.69;100.00;98388.59;5073685;28;20869;-56
2021/12/08 03:29:42;;;;;;;8.00;2.03;;;;;;;5.51;100.00;98366.31;5081760;28;20142;-56
2021/12/08 03:32:13;;;;;;;6.28;2.03;;;;;;;5.59;100.00;98380.53;5068522;28;20035;-58
2021/12/08 03:34:43;;;;;;;8.48;2.25;;;;;;;5.57;100.00;98384.19;5090414;27;20033;-57
2021/12/08 03:37:10;;;;;;;4.80;2.13;;;;;;;5.52;100.00;98400.06;5101431;27;20034;-57
2021/12/08 03:39:40;;;;;;;11.23;2.00;;;;;;;5.46;100.00;98395.25;5077807;27;20115;-56
2021/12/08 03:42:05;;;;;;;6.55;2.17;;;;;;;5.46;100.00;98394.41;5068064;27;20093;-57
2021/12/08 03:44:31;;;;;;;6.32;2.08;;;;;;;5.22;100.00;98375.91;5076322;28;20040;-57
2021/12/08 03:47:01;;;;;;;7.63;2.60;;;;;;;5.40;100.00;98410.41;5079634;28;20867;-57
2021/12/08 03:49:28;;;;;;;9.57;2.35;;;;;;;5.34;100.00;98401.19;5095037;27;20035;-56
2021/12/08 03:51:58;;;;;;;9.02;2.05;;;;;;;5.22;100.00;98406.31;5065387;28;20041;-56
2021/12/08 03:54:23;;;;;;;7.88;2.40;;;;;;;5.13;100.00;98408.56;5064965;28;20031;-56
2021/12/08 03:56:49;;;;;;;5.10;1.92;;;;;;;5.04;100.00;98406.50;5069409;27;20835;-56
2021/12/08 03:59:14;;;;;;;7.82;2.20;;;;;;;5.12;100.00;98406.03;5085276;27;20035;-56
2021/12/08 04:01:40;;;;;;;6.30;1.83;;;;;;;5.13;100.00;98403.38;5084594;27;20830;-57
2021/12/08 04:04:08;;;;;;;10.60;2.65;;;;;;;5.08;100.00;98410.59;5064111;27;20033;-57
2021/12/08 04:06:57;;;;;;;11.25;3.10;;;;;;;5.06;100.00;98417.66;5087478;27;20063;-57
2021/12/08 04:11:50;;;;;;;7.57;2.50;;;;;;;5.00;100.00;98423.22;5080065;28;20043;-57
2021/12/08 04:14:19;;;;;;;11.63;2.40;;;;;;;4.96;100.00;98429.56;5083288;27;20034;-57
2021/12/08 04:16:58;;;;;;;13.13;2.55;;;;;;;4.97;100.00;98417.34;5094930;27;20027;-57
2021/12/08 04:19:24;;;;;;;13.07;2.13;;;;;;;4.88;100.00;98423.13;5070671;28;20036;-57
2021/12/08 04:21:52;;;;;;;8.65;2.55;;;;;;;4.81;100.00;98427.00;5098166;27;20039;-57
2021/12/08 04:24:17;;;;;;;9.70;2.70;;;;;;;4.82;100.00;98437.31;5089418;28;20834;-57
2021/12/08 04:26:50;;;;;;;11.73;2.67;;;;;;;4.83;100.00;98436.41;5094731;28;20084;-57
2021/12/08 04:29:17;;;;;;;7.90;2.17;;;;;;;4.80;100.00;98430.53;5099406;28;20782;-56
2021/12/08 04:31:44;;;;;;;6.68;2.60;;;;;;;4.74;100.00;98431.72;5071784;28;20039;-57
2021/12/08 04:34:16;;;;;;;9.77;2.35;;;;;;;4.68;100.00;98441.66;5081688;28;20039;-57
2021/12/08 04:36:46;;;;;;;11.73;2.95;;;;;;;4.65;100.00;98442.66;5082176;28;20059;-57
2021/12/08 04:39:23;;;;;;;15.63;2.05;;;;;;;4.64;100.00;98433.19;5074079;28;20074;-57
2021/12/08 04:41:55;;;;;;;8.30;2.72;;;;;;;4.66;100.00;98452.16;5088630;28;20077;-57
2021/12/08 04:44:29;;;;;;;5.43;2.22;;;;;;;4.63;100.00;98465.31;5083032;28;20057;-57
2021/12/08 04:52:52;;;;;;;9.70;2.55;;;;;;;4.57;100.00;98468.25;5095530;27;20482;-56
2021/12/08 05:01:14;;;;;;;5.40;2.05;;;;;;;4.37;100.00;98456.41;5102712;27;20528;-57
2021/12/08 05:06:49;;;;;;;8.07;2.65;;;;;;;4.12;100.00;98449.13;5069056;28;20090;-57
2021/12/08 05:09:24;;;;;;;9.88;2.53;;;;;;;4.03;100.00;98457.44;5068803;27;20074;-56
2021/12/08 05:11:54;;;;;;;9.43;2.67;;;;;;;3.97;100.00;98449.97;5095125;27;20096;-57
2021/12/08 05:14:35;;;;;;;10.82;2.58;;;;;;;3.92;100.00;98446.78;5096483;27;20098;-57
2021/12/08 05:17:11;;;;;;;10.18;3.15;;;;;;;3.91;100.00;98449.47;5078016;27;20951;-57
2021/12/08 05:19:39;;;;;;;7.05;2.55;;;;;;;3.92;100.00;98445.97;5100823;27;20038;-57
2021/12/08 05:22:09;;;;;;;8.52;3.20;;;;;;;3.94;100.00;98450.16;5068256;27;20032;-57
2021/12/08 05:24:38;;;;;;;15.60;3.42;;;;;;;3.98;100.00;98446.47;5082433;28;20035;-56
2021/12/08 05:27:17;;;;;;;16.20;3.38;;;;;;;4.10;100.00;98447.53;5085996;27;20035;-57
2021/12/08 05:29:47;;;;;;;21.38;3.50;;;;;;;4.13;100.00;98450.81;5102433;27;20035;-57
2021/12/08 05:32:13;;;;;;;10.98;3.13;;;;;;;4.17;100.00;98442.84;5070927;27;20139;-57
2021/12/08 05:34:39;;;;;;;12.55;3.00;;;;;;;4.11;100.00;98454.41;5071058;28;20024;-56
2021/12/08 05:37:06;;;;;;;8.93;3.13;;;;;;;4.17;100.00;98461.03;5082077;28;20134;-57
2021/12/08 05:39:31;;;;;;;6.43;2.42;;;;;;;4.12;100.00;98462.13;5087844;27;20034;-56
2021/12/08 05:42:09;;;;;;;12.68;3.10;;;;;;;4.12;100.00;98466.50;5081890;27;20078;-57
2021/12/08 05:44:36;;;;;;;9.98;2.88;;;;;;;4.12;100.00;98475.09;5096074;27;20081;-56
2021/12/08 05:47:04;;;;;;;11.35;2.97;;;;;;;4.15;100.00;98470.69;5061572;27;20037;-56
2021/12/08 05:49:30;;;;;;;5.57;2.53;;;;;;;4.16;100.00;98470.59;5101062;27;20027;-55
2021/12/08 05:51:57;;;;;;;6.40;2.88;;;;;;;4.09;100.00;98469.25;5085745;27;20027;-55
2021/12/08 05:54:32;;;;;;;10.43;2.50;;;;;;;4.02;100.00;98483.53;5090660;27;20136;-55
2021/12/08 05:57:03;;;;;;;4.90;1.73;;;;;;;3.99;100.00;98481.91;5078482;28;20043;-56
2021/12/08 05:59:29;;;;;;;7.68;3.05;;;;;;;3.99;100.00;98479.31;5090951;27;20035;-55
2021/12/08 06:02:03;;;;;;;7.88;2.53;;;;;;;3.95;100.00;98488.22;5088467;27;20039;-56
2021/12/08 06:04:29;;;;;;;7.00;2.30;;;;;;;3.85;100.00;98487.00;5102019;27;21076;-56
2021/12/08 06:06:56;;;;;;;11.98;2.67;;;;;;;3.93;100.00;98500.44;5099029;27;20038;-57
2021/12/08 06:09:22;;;;;;;8.32;2.58;;;;;;;3.95;100.00;98509.00;5080394;28;20055;-56
2021/12/08 06:11:49;;;;;;;7.20;2.22;;;;;;;3.91;100.00;98510.06;5070802;28;20115;-57
2021/12/08 06:14:17;;;;;;;9.73;3.10;;;;;;;3.94;100.00;98506.47;5078315;28;20249;-57
2021/12/08 06:16:44;;;;;;;8.55;2.15;;;;;;;3.90;100.00;98513.59;5069792;28;20034;-57
2021/12/08 06:19:12;;;;;;;6.28;1.92;;;;;;;3.84;100.00;98511.31;5084395;28;20054;-57
2021/12/08 06:21:37;;;;;;;8.27;2.38;;;;;;;3.80;100.00;98507.19;5094022;27;20134;-56
2021/12/08 06:24:06;;;;;;;7.18;2.33;;;;;;;3.79;100.00;98517.66;5068044;28;20880;-56
2021/12/08 06:26:32;;;;;;;11.75;2.55;;;;;;;3.74;100.00;98523.13;5079894;28;20031;-56
2021/12/08 06:28:58;;;;;;;7.97;2.65;;;;;;;3.23;100.00;98441.00;5066015;28;20082;-57
2021/12/08 06:31:27;;;;;;;5.65;2.10;;;;;;;3.65;100.00;98515.78;5074369;28;20039;-57
2021/12/08 06:33:53;;;;;;;4.55;1.75;;;;;;;3.20;100.00;98441.19;5080061;28;20028;-56
2021/12/08 06:36:26;;;;;;;12.68;2.60;;;;;;;3.53;100.00;98517.28;5091513;27;20885;-56
2021/12/08 06:38:56;;;;;;;13.20;2.17;;;;;;;3.32;100.00;98486.41;5084976;27;20938;-56
2021/12/08 06:41:26;;;;;;;5.45;2.38;;;;;;;3.44;100.00;98516.94;5076692;28;20031;-57
2021/12/08 06:43:57;;;;;;;10.18;2.55;;;;;;;3.42;100.00;98529.97;5077337;27;20089;-56
2021/12/08 06:46:23;;;;;;;4.55;2.08;;;;;;;3.44;100.00;98527.31;5084244;27;20041;-57
2021/12/08 06:48:52;;;;;;;8.30;2.58;;;;;;;3.38;100.00;98520.66;5099802;27;20042;-57
2021/12/08 06:51:27;;;;;;;6.60;1.95;;;;;;;3.31;100.00;98521.06;5098863;27;20043;-56
2021/12/08 06:53:54;;;;;;;;;;;;;;;3.22;100.00;98521.53;5085344;27;20028;-57
2021/12/08 06:56:31;;;;;;;11.55;2.17;;;;;;;3.14;100.00;98539.25;5070086;28;20695;-56
2021/12/08 06:59:02;;;;;;;7.00;2.20;;;;;;;3.16;100.00;98540.00;5069461;28;20090;-57
2021/12/08 07:06:47;;;;;;;8.10;2.30;;;;;;;3.29;100.00;98551.44;5092974;27;20047;-55
2021/12/08 07:09:22;;;;;;;8.13;2.42;;;;;;;3.33;100.00;98565.94;5064765;28;20066;-57
2021/12/08 07:11:52;;;;;;;7.43;2.38;;;;;;;3.40;100.00;98572.50;5078279;27;20906;-56
2021/12/08 07:14:18;;;;;;;6.35;1.95;;;;;;;3.45;100.00;98579.13;5087262;27;20038;-56
2021/12/08 07:16:45;;;;;;;9.40;2.33;;;;;;;3.49;100.00;98577.22;5071602;27;20721;-57
2021/12/08 07:19:29;;;;;;;9.90;2.53;;;;;;;3.52;100.00;98583.09;5076629;28;20112;-56
2021/12/08 07:21:56;;;;;;;4.40;1.98;;;;;;;3.45;100.00;98581.72;5077270;28;20036;-56
2021/12/08 07:24:29;;;;;;;6.07;2.28;;;;;;;3.44;100.00;98579.22;5064929;27;20019;-56
2021/12/08 07:27:03;;;;;;;8.75;1.98;;;;;;;3.42;100.00;98549.91;5089468;27;20775;-56
2021/12/08 07:29:31;;;;;;;5.93;2.20;;;;;;;3.58;100.00;98563.78;5062347;28;20116;-56
2021/12/08 07:32:01;;;;;;;5.68;2.17;;;;;;;3.57;100.00;98569.91;5075354;27;20027;-56
2021/12/08 07:34:26;;;;;;;6.15;2.22;;;;;;;3.53;100.00;98564.00;5075590;27;20089;-56
2021/12/08 07:36:56;;;;;;;8.85;1.85;;;;;;;3.48;100.00;98575.56;5071994;27;20825;-56
2021/12/08 07:39:28;;;;;;;9.20;2.03;;;;;;;3.53;100.00;98583.94;5066448;28;20088;-56
2021/12/08 07:41:58;;;;;;;5.25;2.05;;;;;;;3.56;100.00;98584.63;5064700;28;20381;-56
2021/12/08 07:44:24;;;;;;;10.55;2.58;;;;;;;3.68;100.00;98587.53;5066119;28;20028;-57
2021/12/08 07:46:54;;;;;;;4.40;2.08;;;;;;;3.76;100.00;98606.97;5065121;28;20108;-57
2021/12/08 07:49:27;;;;;;;5.97;2.35;;;;;;;3.76;100.00;98601.78;5067752;28;20035;-56
2021/12/08 07:51:58;;;;;;;7.25;2.10;;;;;;;3.85;100.00;98601.28;5067033;28;20599;-57
2021/12/08 07:54:24;;;;;;;8.30;1.95;;;;;;;3.91;100.00;98614.00;5066658;28;20026;-57
2021/12/08 07:56:53;;;;;;;10.35;2.10;;;;;;;4.00;100.00;98626.50;5066252;28;20037;-56
2021/12/08 07:59:20;;;;;;;5.55;2.08;;;;;;;4.02;100.00;98624.63;5066375;28;20059;-56
2021/12/08 08:01:50;;;;;;;4.07;1.75;;;;;;;4.00;100.00;98626.50;5067067;28;20164;-56
2021/12/08 08:04:20;;;;;;;8.07;2.55;;;;;;;4.04;100.00;98632.38;5067540;28;20030;-56
2021/12/08 08:06:50;;;;;;;6.97;2.25;;;;;;;4.11;100.00;98613.78;5067113;28;20465;-56
2021/12/08 08:09:21;;;;;;;5.80;1.70;;;;;;;4.15;100.00;98609.25;5066523;28;20031;-56
2021/12/08 08:11:55;;;;;;;6.55;1.88;;;;;;;4.19;100.00;98604.75;5066919;28;20030;-56
2021/12/08 08:14:22;;;;;;;9.30;2.75;;;;;;;4.20;100.00;98601.19;5067062;28;20023;-56
2021/12/08 08:16:54;;;;;;;6.80;1.98;;;;;;;3.89;100.00;98556.06;5054241;28;20036;-57
2021/12/08 08:19:26;;;;;;;7.13;2.17;;;;;;;4.16;100.00;98602.31;5066359;28;20031;-56
2021/12/08 08:21:52;;;;;;;4.78;1.65;;;;;;;3.93;100.00;98565.38;5067597;28;20086;-57
2021/12/08 08:24:18;;;;;;;5.70;2.05;;;;;;;4.17;100.00;98602.22;5066738;28;20947;-56
2021/12/08 08:26:45;;;;;;;6.28;2.10;;;;;;;4.13;100.00;98613.69;5066863;28;20033;-57
2021/12/08 08:29:11;;;;;;;15.43;2.58;;;;;;;4.15;100.00;98609.25;5066904;28;20027;-56
2021/12/08 08:31:53;;;;;;;11.13;2.40;;;;;;;4.19;100.00;98600.34;5066599;28;20248;-56
2021/12/08 08:34:19;;;;;;;6.50;1.75;;;;;;;4.24;100.00;98595.78;5075089;28;20096;-56
2021/12/08 08:36:47;;;;;;;6.28;2.08;;;;;;;4.26;100.00;98609.50;5068872;28;20059;-56
2021/12/08 08:39:20;;;;;;;8.45;1.88;;;;;;;4.30;100.00;98599.78;5065067;28;20272;-56
2021/12/08 08:41:53;;;;;;;5.68;1.98;;;;;;;4.32;100.00;98600.56;5065278;28;20036;-57
2021/12/08 08:44:26;;;;;;;8.27;2.00;;;;;;;4.36;100.00;98594.28;5065175;28;20135;-56
2021/12/08 08:46:52;;;;;;;5.88;1.58;;;;;;;4.40;100.00;98598.38;5064523;28;20049;-57
2021/12/08 08:49:22;;;;;;;11.10;2.67;;;;;;;4.42;100.00;98610.38;5063027;28;20028;-57
2021/12/08 08:51:50;;;;;;;5.18;2.03;;;;;;;4.42;100.00;98620.78;5063246;28;20035;-56
2021/12/08 08:54:20;;;;;;;6.75;2.00;;;;;;;4.43;100.00;98624.19;5059758;28;20119;-57
2021/12/08 08:56:50;;;;;;;8.48;2.60;;;;;;;4.44;100.00;98625.88;5058677;28;20403;-55
2021/12/08 08:59:23;;;;;;;5.72;2.00;;;;;;;4.41;100.00;98626.06;5059375;28;20125;-55
2021/12/08 09:01:51;;;;;;;14.45;2.90;;;;;;;4.40;100.00;98619.16;5064670;28;20332;-55
2021/12/08 09:04:31;;;;;;;7.35;2.15;;;;;;;4.03;100.00;98553.56;5067026;28;20027;-54
2021/12/08 09:07:02;;;;;;;7.10;1.75;;;;;;;4.39;100.00;98618.34;5066372;28;20074;-56
2021/12/08 09:09:50;;;;;;;8.00;2.08;;;;;;;4.43;100.00;98619.00;5053187;28;20030;-54
2021/12/08 09:12:25;;;;;;;6.00;1.98;;;;;;;4.47;100.00;98618.75;5063038;28;20303;-54
2021/12/08 09:15:09;;;;;;;6.88;2.30;;;;;;;4.53;100.00;98617.59;5066727;28;20038;-54
2021/12/08 09:17:42;;;;;;;4.27;1.80;;;;;;;4.47;100.00;98610.13;5076950;28;20034;-54
2021/12/08 09:20:20;;;;;;;7.75;2.08;;;;;;;4.52;100.00;98611.56;5055984;28;20035;-54
2021/12/08 09:22:56;;;;;;;6.13;1.75;;;;;;;4.52;100.00;98608.13;5065574;28;20038;-55
2021/12/08 09:25:31;;;;;;;7.45;2.38;;;;;;;4.51;100.00;98607.28;5070819;28;20182;-55
2021/12/08 09:28:02;;;;;;;4.28;1.77;;;;;;;4.50;100.00;98604.75;5070748;28;20036;-55
2021/12/08 09:30:45;;;;;;;5.05;1.88;;;;;;;4.47;100.00;98599.72;5064755;28;20028;-56
2021/12/08 09:33:19;;;;;;;8.95;1.98;;;;;;;4.43;100.00;98608.59;5064227;28;20047;-55
2021/12/08 09:36:06;;;;;;;6.75;2.15;;;;;;;4.42;100.00;98602.59;5069487;28;20080;-55
2021/12/08 09:38:39;;;;;;;3.28;1.52;;;;;;;4.43;100.00;98608.59;5053314;28;20097;-57
2021/12/08 09:41:16;;;;;;;8.75;2.05;;;;;;;4.41;100.00;98597.47;5069918;28;20268;-54
2021/12/08 09:43:55;;;;;;;4.30;1.85;;;;;;;4.35;100.00;98593.44;5056679;27;20089;-55
2021/12/08 09:46:49;;;;;;;4.40;1.75;;;;;;;4.30;100.00;98579.84;5067936;28;20027;-55
2021/12/08 09:49:17;;;;;;;7.17;1.63;;;;;;;4.28;100.00;98589.50;5060863;27;20039;-55
2021/12/08 09:51:44;;;;;;;4.35;1.48;;;;;;;4.29;100.00;98579.94;5079127;27;20053;-53
2021/12/08 09:54:10;;;;;;;5.38;1.55;;;;;;;4.31;100.00;98585.88;5069984;28;20030;-56
2021/12/08 09:56:36;;;;;;;4.35;1.60;;;;;;;4.32;100.00;98582.38;5069113;28;20035;-55
2021/12/08 09:59:04;;;;;;;6.05;1.85;;;;;;;4.30;100.00;98581.59;5068205;28;20195;-55
2021/12/08 10:01:31;;;;;;;5.30;1.75;;;;;;;4.30;100.00;98584.19;5069544;27;20066;-56
2021/12/08 10:03:56;;;;;;;6.15;2.10;;;;;;;4.28;100.00;98580.84;5081396;27;20028;-55
2021/12/08 10:06:23;;;;;;;4.13;1.98;;;;;;;4.26;100.00;98578.31;5050441;28;20053;-56
2021/12/08 10:08:50;;;;;;;4.53;1.27;;;;;;;4.31;100.00;98573.72;5082874;27;20141;-55
2021/12/08 10:11:17;;;;;;;4.85;1.45;;;;;;;4.37;100.00;98572.53;5069651;27;20032;-55
2021/12/08 10:13:45;;;;;;;7.38;2.17;;;;;;;4.41;100.00;98564.50;5068406;28;20954;-56
2021/12/08 10:16:12;;;;;;;4.95;1.50;;;;;;;4.48;100.00;98565.00;5067842;28;20057;-56
2021/12/08 10:18:38;;;;;;;5.20;1.50;;;;;;;4.57;100.00;98574.88;5081910;27;20422;-56
2021/12/08 10:21:04;;;;;;;7.03;1.77;;;;;;;4.52;100.00;98546.56;5056335;27;20822;-55
2021/12/08 10:23:39;;;;;;;7.03;2.05;;;;;;;4.75;100.00;98568.69;5067913;28;20155;-60
2021/12/08 10:26:12;;;;;;;6.63;1.65;;;;;;;4.82;100.00;98579.56;5068061;28;20062;-61
2021/12/08 10:28:49;;;;;;;6.22;2.03;;;;;;;4.87;100.00;98594.00;5067746;28;20049;-64
2021/12/08 10:31:27;;;;;;;5.63;1.77;;;;;;;4.93;100.00;98587.63;5062304;28;20032;-55
2021/12/08 10:36:54;;;;;;;4.82;1.63;;;;;;;5.14;100.00;98602.00;5082898;27;20166;-55
2021/12/08 10:39:32;;;;;;;7.18;1.55;;;;;;;5.23;100.00;98611.91;5055893;28;20236;-55
2021/12/08 10:42:22;;;;;;;6.55;1.45;;;;;;;5.32;100.00;98615.75;5048455;28;20100;-55
2021/12/08 10:44:50;;;;;;;9.43;2.28;;;;;;;5.36;100.00;98612.03;5050115;28;20039;-55
2021/12/08 10:47:18;;;;;;;3.42;1.50;;;;;;;5.44;100.00;98615.03;5063112;28;20170;-55
2021/12/08 10:55:02;;;;;;;6.18;1.60;;;;;;;5.72;100.00;98609.03;5078384;27;20153;-54
2021/12/08 10:57:34;;;;;;;11.05;1.55;;;;;;;5.72;100.00;98615.09;5073464;27;20035;-55
2021/12/08 11:00:04;;;;;;;6.70;2.08;;;;;;;5.72;100.00;98616.84;5062955;27;20032;-55
2021/12/08 11:02:47;;;;;;;8.90;2.17;;;;;;;5.83;100.00;98623.13;5071241;27;20948;-56
2021/12/08 11:05:24;;;;;;;4.72;1.58;;;;;;;5.83;100.00;98632.69;5064513;28;20030;-55
2021/12/08 11:08:04;;;;;;;6.72;1.55;;;;;;;5.84;100.00;98637.84;5079959;27;20036;-55
2021/12/08 11:10:32;;;;;;;2.47;1.00;;;;;;;5.90;100.00;98644.47;5056033;28;20995;-55
2021/12/08 11:12:59;;;;;;;5.93;1.85;;;;;;;5.89;100.00;98651.44;5077035;27;20080;-55
2021/12/08 11:15:27;;;;;;;4.63;1.42;;;;;;;5.86;100.00;98649.03;5078861;27;20138;-56
2021/12/08 11:18:21;;;;;;;8.68;1.85;;;;;;;5.83;100.00;98650.94;5066591;28;20028;-56
2021/12/08 11:20:52;;;;;;;6.85;2.25;;;;;;;5.76;100.00;98652.22;5065828;28;20027;-57
2021/12/08 11:23:39;;;;;;;12.80;1.50;;;;;;;5.69;100.00;98651.75;5065903;28;20040;-56
2021/12/08 11:26:16;;;;;;;5.57;1.83;;;;;;;5.75;100.00;98656.59;5054325;27;20091;-56
2021/12/08 11:28:43;;;;;;;4.30;1.45;;;;;;;5.85;100.00;98652.53;5057350;28;20020;-56
2021/12/08 11:31:15;;;;;;;3.67;1.45;;;;;;;5.92;100.00;98659.09;5064956;27;20131;-57
2021/12/08 11:33:44;;;;;;;4.70;1.75;;;;;;;5.92;100.00;98669.50;5058096;28;20924;-56
2021/12/08 11:36:19;;;;;;;3.03;1.30;;;;;;;5.89;100.00;98674.91;5062933;28;20138;-56
2021/12/08 11:38:47;;;;;;;2.70;1.10;;;;;;;5.86;100.00;98675.09;5054554;28;20423;-56
2021/12/08 11:41:36;;;;;;;4.82;2.05;;;;;;;5.82;100.00;98673.56;5061317;28;20032;-56
2021/12/08 11:44:15;;;;;;;9.88;1.70;;;;;;;5.77;100.00;98675.59;5056522;28;20031;-56
2021/12/08 11:46:54;;;;;;;4.07;1.80;;;;;;;5.73;100.00;98679.31;5066527;28;20020;-56
2021/12/08 11:49:20;;;;;;;5.53;1.50;;;;;;;5.65;100.00;98681.50;5053199;28;20034;-57
2021/12/08 11:51:56;;;;;;;6.78;1.85;;;;;;;5.65;100.00;98686.72;5067173;28;20027;-58
2021/12/08 11:54:24;;;;;;;6.78;2.05;;;;;;;5.58;100.00;98682.78;5065779;28;20027;-57
2021/12/08 11:56:50;;;;;;;7.15;1.70;;;;;;;5.51;100.00;98687.50;5068078;28;20031;-57
2021/12/08 11:59:15;;;;;;;5.93;1.73;;;;;;;5.47;100.00;98674.78;5067607;28;20032;-56
2021/12/08 12:01:41;;;;;;;7.82;2.25;;;;;;;5.55;100.00;98690.78;5066820;28;20879;-57
2021/12/08 12:04:08;;;;;;;5.47;2.40;;;;;;;5.34;100.00;98658.16;5066118;28;20022;-56
2021/12/08 12:06:34;;;;;;;6.25;2.03;;;;;;;5.38;100.00;98657.03;5065631;28;20820;-57
2021/12/08 12:09:01;;;;;;;7.22;2.25;;;;;;;5.56;100.00;98701.13;5051342;28;20024;-56
2021/12/08 12:11:27;;;;;;;6.85;2.20;;;;;;;5.56;100.00;98695.06;5066279;28;20054;-56
2021/12/08 12:13:54;;;;;;;6.82;2.47;;;;;;;5.52;100.00;98702.22;5077772;27;20418;-56
2021/12/08 12:16:20;;;;;;;10.75;2.55;;;;;;;5.49;100.00;98699.78;5064791;28;20051;-58
2021/12/08 12:18:46;;;;;;;5.85;1.77;;;;;;;5.43;100.00;98701.91;5078409;27;20744;-58
2021/12/08 12:21:20;;;;;;;11.20;2.40;;;;;;;5.47;100.00;98714.69;5049861;28;20147;-56
2021/12/08 12:24:28;;;;;;;5.28;1.50;;;;;;;5.46;100.00;98722.56;5063231;28;20244;-60
2021/12/08 12:27:21;;;;;;;7.15;2.50;;;;;;;5.43;100.00;98734.00;5073802;28;20902;-59
2021/12/08 12:30:15;;;;;;;7.78;1.98;;;;;;;5.42;100.00;98736.69;5081759;28;20084;-60
2021/12/08 12:32:50;;;;;;;3.33;1.60;;;;;;;5.41;100.00;98738.44;5035350;28;20020;-70
2021/12/08 12:35:19;;;;;;;6.47;2.22;;;;;;;5.40;100.00;98734.19;5064136;28;20296;-60
2021/12/08 12:37:45;;;;;;;5.93;2.22;;;;;;;5.38;100.00;98736.00;5069652;28;20023;-60